Time;durP1;ratioP1;P1;durP2;ratioP2;P2;SDS_P1;SDS_P2;PMS_P1;PMS_P2;Temp;Humidity;BMP_temperature;BMP_pressure;BME280_temperature;BME280_humidity;BME280_pressure;Samples;Min_cycle;Max_cycle;Signal;HPM_P1;HPM_P2
2022/12/01 00:00:43;;;;;;;35.13;20.10;;;8.50;92.10;;;;;;4998447;28;20195;-84
2022/12/01 00:03:09;;;;;;;34.73;21.27;;;8.40;85.60;;;;;;4995369;28;20446;-84
2022/12/01 00:05:35;;;;;;;33.53;21.50;;;8.40;89.30;;;;;;4979679;28;20966;-84
2022/12/01 00:08:01;;;;;;;34.23;21.63;;;8.40;96.00;;;;;;4999160;28;20247;-85
2022/12/01 00:10:27;;;;;;;36.75;21.75;;;8.40;88.30;;;;;;5012532;28;20477;-88
2022/12/01 00:12:58;;;;;;;36.10;20.83;;;8.40;99.90;;;;;;5003423;28;20247;-84
2022/12/01 00:15:29;;;;;;;30.45;19.67;;;8.40;76.90;;;;;;4997568;28;20566;-83
2022/12/01 00:17:56;;;;;;;34.50;20.60;;;8.40;70.30;;;;;;4995923;28;20235;-84
2022/12/01 00:20:21;;;;;;;36.10;20.35;;;8.40;65.40;;;;;;4978129;28;20211;-83
2022/12/01 00:22:48;;;;;;;37.80;19.83;;;8.40;91.90;;;;;;4994279;28;20176;-85
2022/12/01 00:25:15;;;;;;;31.10;19.88;;;8.40;95.60;;;;;;4976201;28;20226;-85
2022/12/01 00:27:41;;;;;;;31.15;19.27;;;8.40;63.00;;;;;;4976090;28;20270;-84
2022/12/01 00:30:09;;;;;;;37.90;21.77;;;8.40;45.40;;;;;;4993056;28;20758;-84
2022/12/01 00:32:35;;;;;;;42.28;22.50;;;8.40;51.70;;;;;;4998077;28;20190;-84
2022/12/01 00:35:01;;;;;;;42.50;22.30;;;8.40;40.90;;;;;;4997002;28;20270;-85
2022/12/01 00:37:29;;;;;;;39.00;23.17;;;8.40;39.30;;;;;;4995431;28;20251;-84
2022/12/01 00:39:55;;;;;;;39.65;23.60;;;8.40;46.90;;;;;;4995820;28;20194;-85
2022/12/01 00:42:20;;;;;;;37.97;24.07;;;8.40;43.90;;;;;;4997295;28;20192;-85
2022/12/01 00:44:46;;;;;;;43.70;23.60;;;8.30;84.70;;;;;;4997535;28;20231;-85
2022/12/01 00:47:13;;;;;;;53.60;26.23;;;8.30;81.30;;;;;;4976594;28;20180;-83
2022/12/01 00:49:38;;;;;;;51.40;26.67;;;8.30;99.90;;;;;;4995106;28;20466;-84
2022/12/01 00:52:04;;;;;;;52.37;27.13;;;8.30;99.90;;;;;;4975841;28;20451;-83
2022/12/01 00:54:32;;;;;;;47.37;24.57;;;8.30;99.90;;;;;;4992313;28;20490;-83
2022/12/01 00:56:58;;;;;;;46.63;25.17;;;8.30;99.90;;;;;;4989698;28;20183;-84
2022/12/01 00:59:24;;;;;;;52.17;27.60;;;8.30;99.90;;;;;;4994424;28;20192;-83
2022/12/01 01:01:50;;;;;;;50.40;26.73;;;8.30;99.90;;;;;;4993014;28;20207;-88
2022/12/01 01:04:15;;;;;;;52.07;26.20;;;8.30;99.90;;;;;;4992723;28;20597;-84
2022/12/01 01:06:44;;;;;;;47.50;26.47;;;8.30;99.90;;;;;;4993750;28;20207;-83
2022/12/01 01:09:11;;;;;;;51.20;26.13;;;8.30;99.90;;;;;;4990973;28;20190;-84
2022/12/01 01:11:36;;;;;;;54.53;25.73;;;8.30;99.90;;;;;;4992310;28;20190;-85
2022/12/01 01:14:02;;;;;;;47.93;24.63;;;8.30;99.90;;;;;;4988287;28;20443;-83
2022/12/01 01:16:28;;;;;;;51.33;25.30;;;8.30;99.90;;;;;;4993337;28;20438;-83
2022/12/01 01:18:54;;;;;;;50.97;25.57;;;8.30;99.90;;;;;;4990113;28;20946;-86
2022/12/01 01:21:20;;;;;;;54.13;26.70;;;8.30;99.90;;;;;;4994385;28;20238;-82
2022/12/01 01:23:47;;;;;;;55.50;26.88;;;8.30;99.90;;;;;;4993755;28;20267;-84
2022/12/01 01:26:16;;;;;;;47.92;25.30;;;8.20;99.90;;;;;;4993243;28;20207;-83
2022/12/01 01:28:42;;;;;;;48.00;27.88;;;8.20;99.90;;;;;;4984463;28;20179;-83
2022/12/01 01:31:09;;;;;;;47.97;25.80;;;8.20;99.90;;;;;;4992319;28;20591;-83
2022/12/01 01:33:35;;;;;;;51.03;26.80;;;8.30;99.90;;;;;;4993656;28;20191;-84
2022/12/01 01:36:02;;;;;;;48.55;25.75;;;8.30;99.90;;;;;;4992876;28;20204;-84
2022/12/01 01:38:28;;;;;;;54.58;26.13;;;8.30;99.90;;;;;;4977100;28;20199;-83
2022/12/01 01:40:53;;;;;;;55.28;26.35;;;8.30;99.90;;;;;;4992984;28;20184;-83
2022/12/01 01:43:39;;;;;;;45.67;25.13;;;8.20;99.90;;;;;;4993877;28;20179;-83
2022/12/01 01:46:06;;;;;;;55.67;26.55;;;8.20;99.90;;;;;;4972392;28;20207;-83
2022/12/01 01:48:34;;;;;;;51.15;24.35;;;8.30;99.90;;;;;;4994648;28;20195;-84
2022/12/01 01:51:01;;;;;;;50.30;26.50;;;8.30;99.90;;;;;;4997434;28;20211;-84
2022/12/01 01:53:27;;;;;;;60.35;26.35;;;8.30;99.90;;;;;;4998461;28;20941;-83
2022/12/01 01:55:52;;;;;;;62.40;28.75;;;8.30;99.90;;;;;;4996263;28;20223;-83
2022/12/01 01:58:19;;;;;;;55.10;28.40;;;8.30;99.90;;;;;;4998291;28;20198;-83
2022/12/01 02:00:45;;;;;;;60.10;27.90;;;8.30;99.90;;;;;;4995617;28;20604;-81
2022/12/01 02:03:14;;;;;;;62.00;29.10;;;8.30;99.90;;;;;;4974994;28;20684;-83
2022/12/01 02:05:41;;;;;;;68.57;29.13;;;8.30;99.90;;;;;;4991000;28;20458;-86
2022/12/01 02:08:11;;;;;;;76.45;29.27;;;8.30;99.90;;;;;;5000697;28;20188;-85
2022/12/01 02:10:58;;;;;;;55.40;27.63;;;8.30;99.90;;;;;;4998639;28;20227;-85
2022/12/01 02:14:02;;;;;;;68.30;29.50;;;8.30;99.90;;;;;;4999703;28;20183;-85
2022/12/01 02:16:53;;;;;;;74.35;31.30;;;8.30;99.90;;;;;;5000681;28;20214;-85
2022/12/01 02:19:42;;;;;;;70.80;31.08;;;8.30;99.90;;;;;;4978982;28;20222;-86
2022/12/01 02:22:29;;;;;;;70.78;30.60;;;8.30;99.90;;;;;;4974069;28;20188;-85
2022/12/01 02:25:18;;;;;;;66.80;30.98;;;8.20;99.90;;;;;;4999570;28;20234;-84
2022/12/01 02:28:08;;;;;;;69.15;30.13;;;8.20;99.90;;;;;;4996165;28;20238;-86
2022/12/01 02:30:44;;;;;;;72.47;30.67;;;8.20;99.90;;;;;;4999332;28;20697;-86
2022/12/01 02:33:26;;;;;;;72.38;33.72;;;8.20;99.90;;;;;;4999758;28;20202;-85
2022/12/01 02:36:18;;;;;;;77.03;33.50;;;8.20;99.90;;;;;;4998959;28;20206;-83
2022/12/01 02:38:56;;;;;;;76.10;33.30;;;8.20;99.90;;;;;;4982619;28;20179;-83
2022/12/01 02:41:21;;;;;;;69.07;31.98;;;8.20;99.90;;;;;;4998279;28;20438;-84
2022/12/01 02:44:04;;;;;;;75.83;33.33;;;8.10;99.90;;;;;;4998455;28;20207;-85
2022/12/01 02:46:34;;;;;;;75.43;34.55;;;8.10;99.90;;;;;;4980963;28;20451;-85
2022/12/01 02:49:06;;;;;;;68.75;33.22;;;8.10;99.90;;;;;;4999699;28;20196;-85
2022/12/01 02:51:34;;;;;;;71.63;31.00;;;8.10;99.90;;;;;;4999998;28;20191;-85
2022/12/01 02:54:02;;;;;;;81.72;34.17;;;8.10;99.90;;;;;;4998511;28;20180;-86
2022/12/01 02:56:27;;;;;;;71.47;32.30;;;8.10;99.90;;;;;;4983159;28;20617;-86
2022/12/01 02:58:53;;;;;;;77.00;34.37;;;8.10;99.90;;;;;;4994578;28;20187;-83
2022/12/01 03:01:34;;;;;;;78.50;34.27;;;8.10;99.90;;;;;;4978964;28;20191;-85
2022/12/01 03:04:21;;;;;;;88.22;35.92;;;8.10;99.90;;;;;;4999029;28;20183;-85
2022/12/01 03:06:55;;;;;;;91.13;38.33;;;8.00;99.90;;;;;;4999592;28;20204;-86
2022/12/01 03:09:39;;;;;;;71.57;34.13;;;8.00;99.90;;;;;;4999212;28;20198;-85
2022/12/01 03:12:25;;;;;;;83.28;35.97;;;8.10;99.90;;;;;;4994146;28;20199;-86
2022/12/01 03:15:10;;;;;;;85.85;36.03;;;8.10;99.90;;;;;;4998021;28;20650;-85
2022/12/01 03:17:57;;;;;;;87.18;35.97;;;8.10;99.90;;;;;;4994098;28;20303;-85
2022/12/01 03:20:32;;;;;;;99.72;38.85;;;8.00;99.90;;;;;;4981673;28;20198;-83
2022/12/01 03:23:08;;;;;;;83.07;37.50;;;8.00;99.90;;;;;;4999263;28;20190;-85
2022/12/01 03:25:35;;;;;;;105.43;39.85;;;8.00;99.90;;;;;;5000147;28;20214;-86
2022/12/01 03:28:04;;;;;;;86.45;39.85;;;8.00;99.90;;;;;;4998605;28;20202;-84
2022/12/01 03:30:33;;;;;;;91.88;38.80;;;8.00;99.90;;;;;;4982408;28;20215;-85
2022/12/01 03:33:08;;;;;;;92.95;40.45;;;8.00;99.90;;;;;;4977055;28;20216;-83
2022/12/01 03:35:37;;;;;;;88.93;38.30;;;8.00;99.90;;;;;;4983988;28;20235;-84
2022/12/01 03:38:17;;;;;;;101.95;40.83;;;8.00;99.90;;;;;;4981973;28;20187;-85
2022/12/01 03:40:45;;;;;;;103.88;41.05;;;8.00;99.90;;;;;;4992852;28;20191;-86
2022/12/01 03:43:14;;;;;;;94.30;39.75;;;8.00;99.90;;;;;;4982266;28;20622;-85
2022/12/01 03:45:58;;;;;;;100.18;41.88;;;8.00;99.90;;;;;;4997043;28;20615;-85
2022/12/01 03:48:24;;;;;;;103.75;39.53;;;8.00;99.90;;;;;;4999753;28;20191;-85
2022/12/01 03:51:02;;;;;;;97.97;39.25;;;8.00;1.00;;;;;;4995491;28;20211;-85
2022/12/01 03:53:37;;;;;;;98.68;38.53;;;8.00;1.00;;;;;;4998385;28;20194;-85
2022/12/01 03:56:05;;;;;;;126.43;42.70;;;8.00;1.00;;;;;;4981279;28;20691;-84
2022/12/01 03:58:40;;;;;;;101.75;40.25;;;8.00;1.00;;;;;;4999323;28;20192;-85
2022/12/01 04:01:06;;;;;;;96.85;40.50;;;8.00;99.90;;;;;;4981518;28;20390;-85
2022/12/01 04:03:32;;;;;;;97.43;40.95;;;8.00;1.00;;;;;;4988134;28;20202;-85
2022/12/01 04:05:59;;;;;;;97.87;39.97;;;8.00;1.00;;;;;;5007598;28;20266;-84
2022/12/01 04:08:24;;;;;;;107.38;41.50;;;8.00;1.00;;;;;;5006085;28;20449;-85
2022/12/01 04:10:50;;;;;;;107.13;42.17;;;8.00;1.00;;;;;;5011708;28;20211;-83
2022/12/01 04:13:21;;;;;;;101.60;40.70;;;8.00;1.00;;;;;;4996308;28;20555;-83
2022/12/01 04:15:56;;;;;;;103.18;42.03;;;8.00;1.00;;;;;;4996218;28;20199;-83
2022/12/01 04:18:21;;;;;;;105.80;40.72;;;8.00;1.00;;;;;;4995923;28;20222;-83
2022/12/01 04:20:48;;;;;;;110.43;41.37;;;8.00;99.90;;;;;;4992683;28;20183;-87
2022/12/01 04:23:58;;;;;;;99.55;39.03;;;8.00;99.90;;;;;;4989649;28;20202;-84
2022/12/01 04:26:04;;;;;;;110.45;38.58;;;8.00;99.90;;;;;;4986134;28;20250;-82
2022/12/01 04:28:29;;;;;;;107.10;39.08;;;8.00;99.90;;;;;;4991175;28;20706;-85
2022/12/01 04:30:55;;;;;;;103.63;40.77;;;8.00;99.90;;;;;;4974058;28;20258;-83
2022/12/01 04:33:20;;;;;;;91.50;39.17;;;8.00;1.00;;;;;;4992992;28;20196;-83
2022/12/01 04:35:56;;;;;;;102.37;37.93;;;8.00;1.00;;;;;;4992659;28;20209;-84
2022/12/01 04:38:21;;;;;;;92.38;37.28;;;8.00;1.00;;;;;;4973760;28;20195;-84
2022/12/01 04:40:47;;;;;;;92.53;38.80;;;8.00;1.00;;;;;;4987391;28;20731;-83
2022/12/01 04:43:12;;;;;;;98.93;40.60;;;8.00;1.00;;;;;;4991455;28;20188;-83
2022/12/01 04:45:38;;;;;;;101.10;38.00;;;8.00;1.00;;;;;;4992001;28;20295;-83
2022/12/01 04:48:03;;;;;;;102.63;38.20;;;8.00;1.00;;;;;;4991803;28;20210;-83
2022/12/01 04:50:30;;;;;;;94.50;37.77;;;8.00;1.00;;;;;;4992230;28;20419;-85
2022/12/01 04:52:55;;;;;;;90.07;37.53;;;8.00;1.00;;;;;;4991824;28;20262;-83
2022/12/01 04:55:21;;;;;;;95.50;36.43;;;8.00;1.00;;;;;;4992207;28;20297;-83
2022/12/01 04:57:47;;;;;;;93.90;38.42;;;8.00;1.00;;;;;;4983038;28;20246;-82
2022/12/01 05:00:13;;;;;;;103.13;37.50;;;8.00;1.00;;;;;;4992413;28;20195;-85
2022/12/01 05:02:42;;;;;;;95.43;37.57;;;8.00;1.00;;;;;;4990703;28;20179;-83
2022/12/01 05:05:11;;;;;;;92.65;40.90;;;8.00;1.00;;;;;;4992918;28;20580;-83
2022/12/01 05:07:37;;;;;;;97.35;39.72;;;8.00;1.00;;;;;;4992315;28;20238;-83
2022/12/01 05:10:03;;;;;;;85.07;37.07;;;8.00;1.00;;;;;;4992407;28;20207;-84
2022/12/01 05:12:29;;;;;;;95.15;38.78;;;8.00;1.00;;;;;;4973947;28;20184;-85
2022/12/01 05:14:54;;;;;;;92.73;40.40;;;8.00;99.90;;;;;;4987873;28;20230;-83
2022/12/01 05:17:20;;;;;;;76.13;37.13;;;7.90;99.90;;;;;;4973899;28;20180;-83
2022/12/01 05:22:29;;;;;;;92.75;39.50;;;7.90;99.90;;;;;;4994179;28;20222;-83
2022/12/01 05:24:55;;;;;;;80.60;35.30;;;7.80;99.90;;;;;;4997374;28;20687;-83
2022/12/01 05:27:20;;;;;;;78.53;35.77;;;7.80;99.90;;;;;;4995466;28;20187;-83
2022/12/01 05:29:46;;;;;;;83.93;33.67;;;7.80;99.90;;;;;;4991969;28;20211;-84
2022/12/01 05:32:12;;;;;;;65.00;30.73;;;7.80;1.00;;;;;;4996690;28;20187;-82
2022/12/01 05:34:37;;;;;;;74.27;32.10;;;7.90;1.00;;;;;;4996020;28;20180;-83
2022/12/01 05:37:03;;;;;;;68.00;31.47;;;7.90;1.00;;;;;;4997641;28;20239;-84
2022/12/01 05:39:28;;;;;;;57.70;31.30;;;7.90;99.90;;;;;;4996088;28;20262;-83
2022/12/01 05:41:54;;;;;;;69.80;32.90;;;7.90;99.90;;;;;;4992955;28;20350;-83
2022/12/01 05:44:19;;;;;;;65.70;32.30;;;7.90;99.90;;;;;;4996691;28;20278;-83
2022/12/01 05:46:45;;;;;;;59.90;28.80;;;7.90;99.90;;;;;;4993674;28;20207;-85
2022/12/01 05:49:10;;;;;;;50.63;28.07;;;7.90;99.90;;;;;;4995753;28;20179;-83
2022/12/01 05:51:36;;;;;;;58.70;28.40;;;7.90;99.90;;;;;;4979083;28;20195;-83
2022/12/01 05:54:02;;;;;;;58.03;28.17;;;7.90;99.90;;;;;;4997607;28;20734;-85
2022/12/01 05:56:27;;;;;;;66.63;28.60;;;7.80;99.90;;;;;;4995369;28;20215;-85
2022/12/01 05:58:53;;;;;;;58.77;28.20;;;7.80;99.90;;;;;;4998205;28;20192;-83
2022/12/01 06:01:18;;;;;;;57.33;28.80;;;7.70;99.90;;;;;;4979201;28;20659;-85
2022/12/01 06:03:44;;;;;;;61.13;29.03;;;7.70;99.90;;;;;;4999881;28;20180;-84
2022/12/01 06:06:09;;;;;;;56.17;28.60;;;7.70;99.90;;;;;;4993679;28;20706;-85
2022/12/01 06:08:35;;;;;;;54.90;30.40;;;7.70;99.90;;;;;;4978071;28;20724;-84
2022/12/01 06:11:01;;;;;;;58.20;27.57;;;7.70;99.90;;;;;;5000929;28;20207;-84
2022/12/01 06:13:26;;;;;;;58.80;26.55;;;7.60;99.90;;;;;;4992442;28;20179;-84
2022/12/01 06:16:01;;;;;;;61.40;29.47;;;7.60;99.90;;;;;;5000856;28;20207;-83
2022/12/01 06:18:29;;;;;;;57.90;28.23;;;7.60;99.90;;;;;;5009111;28;20205;-85
2022/12/01 06:20:54;;;;;;;61.90;28.73;;;7.60;99.90;;;;;;4997137;28;20240;-85
2022/12/01 06:23:20;;;;;;;55.97;27.23;;;7.60;99.90;;;;;;4997777;28;20195;-85
2022/12/01 06:25:46;;;;;;;58.53;27.07;;;7.60;99.90;;;;;;5009286;28;20199;-85
2022/12/01 06:28:11;;;;;;;73.37;30.40;;;7.60;99.90;;;;;;5016218;28;20179;-83
2022/12/01 06:30:37;;;;;;;51.33;26.77;;;7.70;99.90;;;;;;4990910;28;20613;-84
2022/12/01 06:33:02;;;;;;;52.70;27.47;;;7.70;99.90;;;;;;4996781;28;20186;-86
2022/12/01 06:35:28;;;;;;;55.20;28.10;;;7.70;99.90;;;;;;5012277;28;20214;-84
2022/12/01 06:37:53;;;;;;;53.87;28.97;;;7.70;99.90;;;;;;5015629;28;20297;-84
2022/12/01 06:40:19;;;;;;;66.00;30.63;;;7.70;99.90;;;;;;4991523;28;20693;-83
2022/12/01 06:42:45;;;;;;;52.30;28.73;;;7.70;99.90;;;;;;4991074;28;20219;-86
2022/12/01 06:45:11;;;;;;;57.07;30.90;;;7.70;99.90;;;;;;5007924;28;20290;-85
2022/12/01 06:47:36;;;;;;;64.37;28.63;;;7.70;99.90;;;;;;4978606;28;20187;-83
2022/12/01 06:50:04;;;;;;;53.00;29.03;;;7.70;99.90;;;;;;5016021;28;20206;-84
2022/12/01 06:52:29;;;;;;;62.42;28.55;;;7.70;99.90;;;;;;5003183;28;20506;-85
2022/12/01 06:54:55;;;;;;;50.13;25.20;;;7.70;99.90;;;;;;5006385;28;20952;-85
2022/12/01 06:57:20;;;;;;;64.93;27.87;;;7.70;99.90;;;;;;5018333;28;20177;-84
2022/12/01 06:59:46;;;;;;;67.57;29.10;;;7.70;99.90;;;;;;5002661;28;20183;-82
2022/12/01 07:02:11;;;;;;;66.67;31.03;;;7.70;99.90;;;;;;5000955;28;20558;-82
2022/12/01 07:04:37;;;;;;;57.23;28.60;;;7.70;99.90;;;;;;4996787;28;20202;-83
2022/12/01 07:07:05;;;;;;;70.33;28.80;;;7.70;99.90;;;;;;5002726;28;20214;-83
2022/12/01 07:09:31;;;;;;;62.33;28.35;;;7.70;99.90;;;;;;5005255;28;20274;-83
2022/12/01 07:11:56;;;;;;;68.03;30.43;;;7.80;99.90;;;;;;5008805;28;20266;-83
2022/12/01 07:14:24;;;;;;;54.00;26.47;;;7.80;99.90;;;;;;4984071;28;20194;-84
2022/12/01 07:16:49;;;;;;;55.85;26.90;;;7.90;99.90;;;;;;5003646;28;20203;-83
2022/12/01 07:19:15;;;;;;;57.20;27.57;;;8.00;99.90;;;;;;5008151;28;20187;-83
2022/12/01 07:21:41;;;;;;;53.37;24.83;;;8.00;99.90;;;;;;4998905;28;20457;-84
2022/12/01 07:24:07;;;;;;;57.80;25.83;;;8.00;99.90;;;;;;5019423;28;20183;-84
2022/12/01 07:26:32;;;;;;;54.53;25.90;;;8.00;99.90;;;;;;5009827;28;20210;-84
2022/12/01 07:28:58;;;;;;;58.50;26.23;;;8.00;99.90;;;;;;4993863;28;20789;-83
2022/12/01 07:31:23;;;;;;;50.00;26.30;;;8.00;99.90;;;;;;5010290;28;20219;-84
2022/12/01 07:33:49;;;;;;;50.47;24.83;;;8.00;99.90;;;;;;5008814;28;20192;-83
2022/12/01 07:36:14;;;;;;;58.57;26.80;;;8.00;99.90;;;;;;5008265;28;20568;-83
2022/12/01 07:38:40;;;;;;;54.60;24.40;;;8.00;99.90;;;;;;4999007;28;20191;-84
2022/12/01 07:41:15;;;;;;;60.83;28.55;;;8.00;80.00;;;;;;4991520;28;20184;-83
2022/12/01 07:43:41;;;;;;;48.45;25.50;;;8.00;16.10;;;;;;4979994;28;20176;-83
2022/12/01 07:46:12;;;;;;;53.88;26.52;;;8.00;4.90;;;;;;5008255;28;20214;-84
2022/12/01 07:48:38;;;;;;;47.05;25.30;;;8.00;20.70;;;;;;5019796;28;20182;-84
2022/12/01 07:51:05;;;;;;;50.83;25.27;;;8.00;17.70;;;;;;5006882;28;20215;-84
2022/12/01 07:53:31;;;;;;;50.70;24.55;;;7.90;11.10;;;;;;4991729;28;20431;-81
2022/12/01 07:55:57;;;;;;;50.20;26.23;;;8.00;16.00;;;;;;5008227;28;20227;-84
2022/12/01 07:58:23;;;;;;;56.53;25.85;;;8.00;10.10;;;;;;5007980;28;20191;-83
2022/12/01 08:00:48;;;;;;;57.27;25.60;;;8.00;1.00;;;;;;5023205;28;20747;-85
2022/12/01 08:03:14;;;;;;;53.23;25.47;;;8.00;1.00;;;;;;5011341;28;20227;-83
2022/12/01 08:05:39;;;;;;;54.87;25.60;;;8.00;1.00;;;;;;5002413;28;20207;-83
2022/12/01 08:08:05;;;;;;;43.00;23.33;;;8.00;1.00;;;;;;5009957;28;20179;-83
2022/12/01 08:10:31;;;;;;;44.60;25.23;;;8.10;1.00;;;;;;5009154;28;20570;-83
2022/12/01 08:12:56;;;;;;;48.80;24.70;;;8.10;1.00;;;;;;5003890;28;20190;-83
2022/12/01 08:15:22;;;;;;;48.53;25.07;;;8.10;1.00;;;;;;4989681;28;20254;-83
2022/12/01 08:17:47;;;;;;;49.00;25.37;;;8.10;1.00;;;;;;4998678;28;20190;-83
2022/12/01 08:20:14;;;;;;;44.63;23.70;;;8.10;1.00;;;;;;4984243;28;20192;-83
2022/12/01 08:22:40;;;;;;;48.80;24.73;;;8.20;1.00;;;;;;4992583;28;20672;-83
2022/12/01 08:25:06;;;;;;;53.10;24.70;;;8.20;1.00;;;;;;5005995;28;20545;-83
2022/12/01 08:27:32;;;;;;;47.07;23.77;;;8.10;1.00;;;;;;5010536;28;20674;-83
2022/12/01 08:29:58;;;;;;;44.75;22.65;;;8.20;1.00;;;;;;5001006;28;20934;-84
2022/12/01 08:32:24;;;;;;;47.90;22.40;;;8.20;1.00;;;;;;4993663;28;20264;-83
2022/12/01 08:34:50;;;;;;;40.63;22.73;;;8.20;99.90;;;;;;5013941;28;20264;-83
2022/12/01 08:37:15;;;;;;;40.10;21.70;;;8.20;99.90;;;;;;4996604;28;20184;-83
2022/12/01 08:39:41;;;;;;;47.57;24.90;;;8.20;99.90;;;;;;5001603;28;20199;-83
2022/12/01 08:42:06;;;;;;;36.37;21.37;;;8.20;99.90;;;;;;5000831;28;20195;-83
2022/12/01 08:44:32;;;;;;;40.40;22.17;;;8.20;99.90;;;;;;4996805;28;20191;-84
2022/12/01 08:46:57;;;;;;;47.27;22.60;;;8.20;99.90;;;;;;4986447;28;20330;-85
2022/12/01 08:49:23;;;;;;;40.37;20.60;;;8.20;99.90;;;;;;4977353;28;20774;-84
2022/12/01 08:51:48;;;;;;;49.53;22.63;;;8.30;99.90;;;;;;4994546;28;20183;-84
2022/12/01 08:54:14;;;;;;;47.13;22.87;;;8.30;99.90;;;;;;4993934;28;20206;-83
2022/12/01 08:56:42;;;;;;;48.60;24.27;;;8.30;99.90;;;;;;5003277;28;20211;-81
2022/12/01 08:59:08;;;;;;;46.33;23.27;;;8.40;99.90;;;;;;4998385;28;20183;-84
2022/12/01 09:01:34;;;;;;;47.57;23.77;;;8.40;99.90;;;;;;5004515;28;20419;-83
2022/12/01 09:04:04;;;;;;;53.08;25.67;;;8.50;99.90;;;;;;4992182;28;20459;-82
2022/12/01 09:06:41;;;;;;;58.67;25.60;;;8.50;99.90;;;;;;4987716;28;20250;-83
2022/12/01 09:09:12;;;;;;;51.97;26.15;;;8.50;99.90;;;;;;4990141;28;20210;-83
2022/12/01 09:11:38;;;;;;;62.30;28.03;;;8.50;99.90;;;;;;4988854;28;20207;-83
2022/12/01 09:14:03;;;;;;;53.97;27.43;;;8.60;98.40;;;;;;4994717;28;21001;-83
2022/12/01 09:16:29;;;;;;;56.43;26.67;;;8.60;76.20;;;;;;4993345;28;20459;-83
2022/12/01 09:18:55;;;;;;;55.90;26.80;;;8.60;17.30;;;;;;5003905;28;20175;-83
2022/12/01 09:21:23;;;;;;;52.67;24.77;;;8.60;1.00;;;;;;4993582;28;20187;-83
2022/12/01 09:23:49;;;;;;;59.28;25.23;;;8.60;1.00;;;;;;4994470;28;20469;-83
2022/12/01 09:26:18;;;;;;;55.13;25.20;;;8.60;1.00;;;;;;4998596;28;20283;-83
2022/12/01 09:28:45;;;;;;;57.23;29.63;;;8.60;1.00;;;;;;4965113;28;20554;-82
2022/12/01 09:31:11;;;;;;;51.50;26.50;;;8.60;1.00;;;;;;4995160;28;20553;-83
2022/12/01 09:33:38;;;;;;;52.20;25.90;;;8.60;1.00;;;;;;4992237;28;20180;-84
2022/12/01 09:36:05;;;;;;;58.70;26.55;;;8.60;1.00;;;;;;4994595;28;20450;-82
2022/12/01 09:38:32;;;;;;;57.30;27.83;;;8.50;1.00;;;;;;4991004;28;20695;-81
2022/12/01 09:41:29;;;;;;;62.33;29.10;;;8.50;1.00;;;;;;4985271;28;20474;-82
2022/12/01 09:44:05;;;;;;;62.00;27.73;;;8.50;99.80;;;;;;4979013;28;20501;-84
2022/12/01 09:46:43;;;;;;;71.83;30.83;;;8.50;99.90;;;;;;4989924;28;20573;-83
2022/12/01 09:49:17;;;;;;;63.33;29.85;;;8.50;99.90;;;;;;4971085;28;20450;-85
2022/12/01 09:51:42;;;;;;;65.15;29.98;;;8.50;99.90;;;;;;4991905;28;20207;-82
2022/12/01 09:54:12;;;;;;;64.03;29.83;;;8.50;99.90;;;;;;4993191;28;20187;-84
2022/12/01 09:56:48;;;;;;;62.00;28.33;;;8.50;99.90;;;;;;4992398;28;20218;-83
2022/12/01 09:59:22;;;;;;;73.13;30.27;;;8.60;99.90;;;;;;4987563;28;20438;-83
2022/12/01 10:01:58;;;;;;;66.40;30.30;;;8.60;99.90;;;;;;4993128;28;20261;-84
2022/12/01 10:04:34;;;;;;;67.07;31.03;;;8.60;99.90;;;;;;4980003;28;20241;-85
2022/12/01 10:07:13;;;;;;;66.13;30.83;;;8.60;99.90;;;;;;4977182;28;21064;-84
2022/12/01 10:10:00;;;;;;;73.32;30.83;;;8.60;75.10;;;;;;4978579;28;20191;-85
2022/12/01 10:12:31;;;;;;;64.80;30.73;;;8.60;99.90;;;;;;4994879;28;20191;-84
2022/12/01 10:15:13;;;;;;;62.88;31.48;;;8.60;99.90;;;;;;4981764;28;20973;-83
2022/12/01 10:17:51;;;;;;;66.10;30.90;;;8.60;99.90;;;;;;4996381;28;20193;-84
2022/12/01 10:20:28;;;;;;;72.00;33.88;;;8.60;1.00;;;;;;4998908;28;20647;-84
2022/12/01 10:23:06;;;;;;;79.50;32.25;;;8.60;19.80;;;;;;4995049;28;20195;-84
2022/12/01 10:25:56;;;;;;;68.18;32.35;;;8.60;34.80;;;;;;4998962;28;20354;-84
2022/12/01 10:28:44;;;;;;;79.30;31.20;;;8.60;56.30;;;;;;5000461;28;20202;-85
2022/12/01 10:31:59;;;;;;;83.20;33.63;;;8.50;57.90;;;;;;4993942;28;20494;-80
2022/12/01 10:34:31;;;;;;;78.93;36.42;;;8.60;99.90;;;;;;4937531;28;20242;-82
2022/12/01 10:36:57;;;;;;;79.03;33.15;;;8.50;99.90;;;;;;4994471;28;20191;-82
2022/12/01 10:39:33;;;;;;;87.57;34.80;;;8.50;38.40;;;;;;4991208;28;20185;-83
2022/12/01 10:42:20;;;;;;;80.90;35.80;;;8.40;99.90;;;;;;4995104;28;20643;-82
2022/12/01 10:44:46;;;;;;;75.90;34.53;;;8.50;99.90;;;;;;4992207;28;20177;-85
2022/12/01 10:47:19;;;;;;;67.00;33.80;;;8.50;99.90;;;;;;4988959;28;20186;-84
2022/12/01 10:49:45;;;;;;;79.05;34.55;;;8.50;99.90;;;;;;4987003;28;20489;-83
2022/12/01 10:52:38;;;;;;;83.53;35.93;;;8.50;99.90;;;;;;4993567;28;20183;-83
2022/12/01 10:55:21;;;;;;;75.07;34.30;;;8.50;99.90;;;;;;4990100;28;20268;-85
2022/12/01 10:57:48;;;;;;;70.22;34.88;;;8.50;99.90;;;;;;4978333;28;20246;-84
2022/12/01 11:00:31;;;;;;;81.03;35.03;;;8.50;99.90;;;;;;4978866;28;20462;-87
2022/12/01 11:02:57;;;;;;;80.27;34.60;;;8.50;99.90;;;;;;4998815;28;20192;-85
2022/12/01 11:05:34;;;;;;;77.77;33.50;;;8.50;99.90;;;;;;4998167;28;20466;-85
2022/12/01 11:07:59;;;;;;;69.47;34.88;;;8.40;99.90;;;;;;4976123;28;20576;-84
2022/12/01 11:10:28;;;;;;;75.40;33.30;;;8.40;99.90;;;;;;4996888;28;20295;-86
2022/12/01 11:13:04;;;;;;;82.93;36.15;;;8.40;99.90;;;;;;4996175;28;20504;-84
2022/12/01 11:15:38;;;;;;;72.60;34.13;;;8.40;99.90;;;;;;4978816;28;20206;-85
2022/12/01 11:18:19;;;;;;;83.63;36.60;;;8.50;99.90;;;;;;4980441;28;20198;-85
2022/12/01 11:20:44;;;;;;;83.93;36.03;;;8.50;99.90;;;;;;4994496;28;20203;-85
2022/12/01 11:23:19;;;;;;;84.60;37.63;;;8.50;99.90;;;;;;4981355;28;20195;-83
2022/12/01 11:25:59;;;;;;;83.43;36.27;;;8.50;99.90;;;;;;4989527;28;21162;-85
2022/12/01 11:28:26;;;;;;;70.03;33.30;;;8.50;99.90;;;;;;4992178;28;20441;-85
2022/12/01 11:31:01;;;;;;;70.72;35.17;;;8.50;99.90;;;;;;4991086;28;20466;-84
2022/12/01 11:33:28;;;;;;;88.03;35.88;;;8.60;99.90;;;;;;4998152;28;20225;-85
2022/12/01 11:35:54;;;;;;;75.03;36.00;;;8.60;99.90;;;;;;4981524;28;20207;-85
2022/12/01 11:38:23;;;;;;;88.75;37.00;;;8.60;99.90;;;;;;4999820;28;20187;-85
2022/12/01 11:40:49;;;;;;;81.63;33.63;;;8.60;99.90;;;;;;4979716;28;20234;-84
2022/12/01 11:43:28;;;;;;;74.53;37.40;;;8.70;99.90;;;;;;4997973;28;20515;-86
2022/12/01 11:45:56;;;;;;;76.77;35.47;;;8.70;99.90;;;;;;4998342;28;20458;-85
2022/12/01 11:48:30;;;;;;;77.23;36.60;;;8.70;99.90;;;;;;4993316;28;20453;-85
2022/12/01 11:51:02;;;;;;;75.13;34.95;;;8.70;99.90;;;;;;4982316;28;20479;-85
2022/12/01 11:53:36;;;;;;;79.32;34.17;;;8.70;99.90;;;;;;4999018;28;20180;-85
2022/12/01 11:56:22;;;;;;;82.70;34.90;;;8.60;99.90;;;;;;4995546;28;20211;-87
2022/12/01 11:59:01;;;;;;;81.83;34.60;;;8.70;99.90;;;;;;5012760;28;20431;-86
2022/12/01 12:02:03;;;;;;;84.77;36.60;;;8.70;99.90;;;;;;4976691;28;20468;-84
2022/12/01 12:04:43;;;;;;;82.82;34.30;;;8.70;99.90;;;;;;4992948;28;20517;-85
2022/12/01 12:07:30;;;;;;;89.50;36.83;;;8.70;99.90;;;;;;4992572;28;20191;-85
2022/12/01 12:10:17;;;;;;;86.15;37.15;;;8.70;99.90;;;;;;4972884;28;20561;-83
2022/12/01 12:12:56;;;;;;;78.93;37.60;;;8.70;99.90;;;;;;4975631;28;20175;-82
2022/12/01 12:15:43;;;;;;;75.47;35.93;;;8.80;99.90;;;;;;4969818;28;20458;-83
2022/12/01 12:18:34;;;;;;;82.83;40.20;;;8.80;84.50;;;;;;4993518;28;20449;-83
2022/12/01 12:21:24;;;;;;;69.57;36.77;;;8.80;1.00;;;;;;4995389;28;20454;-83
2022/12/01 12:23:49;;;;;;;65.70;33.60;;;8.90;1.00;;;;;;4992235;28;20953;-83
2022/12/01 12:26:19;;;;;;;64.67;34.27;;;8.80;1.00;;;;;;4991941;28;20455;-84
2022/12/01 12:29:05;;;;;;;67.40;33.70;;;8.80;99.90;;;;;;4974211;28;20184;-83
2022/12/01 12:31:51;;;;;;;75.05;36.63;;;8.70;1.00;;;;;;4983550;28;20545;-84
2022/12/01 12:34:53;;;;;;;63.65;33.35;;;8.70;1.00;;;;;;4967328;28;20605;-83
2022/12/01 12:37:33;;;;;;;73.45;35.22;;;8.70;1.00;;;;;;4993581;28;20257;-84
2022/12/01 12:40:07;;;;;;;67.93;35.83;;;8.70;1.00;;;;;;4990314;28;20200;-84
2022/12/01 12:43:04;;;;;;;66.53;34.85;;;8.60;1.00;;;;;;4977984;28;20236;-85
2022/12/01 12:45:48;;;;;;;70.70;35.50;;;8.50;1.00;;;;;;4989073;28;20579;-83
2022/12/01 12:48:27;;;;;;;67.43;32.72;;;8.50;1.00;;;;;;4973996;28;20188;-83
2022/12/01 12:51:12;;;;;;;62.90;32.83;;;8.40;99.90;;;;;;4981095;28;20214;-83
2022/12/01 12:53:47;;;;;;;75.70;36.00;;;8.30;1.00;;;;;;4995018;28;20183;-84
2022/12/01 12:56:16;;;;;;;61.33;31.67;;;8.20;99.90;;;;;;4984575;28;20854;-83
2022/12/01 12:59:24;;;;;;;63.22;35.00;;;8.10;99.90;;;;;;4986862;28;20202;-83